createdAt,value
2019-04-23T00:03:45.859Z,7.77
2019-04-23T00:06:24.854Z,8.67
2019-04-23T00:11:30.156Z,9.00
2019-04-23T00:13:57.781Z,8.30
2019-04-23T00:16:36.381Z,9.43
2019-04-23T00:18:49.507Z,8.93
2019-04-23T00:22:09.134Z,9.27
2019-04-23T00:35:02.717Z,9.50
2019-04-23T00:42:34.343Z,10.47
2019-04-23T00:45:00.304Z,9.73
2019-04-23T00:47:34.747Z,9.90
2019-04-23T00:50:06.355Z,10.00
2019-04-23T00:52:35.266Z,10.00
2019-04-23T00:55:10.970Z,10.50
2019-04-23T00:57:35.878Z,11.20
2019-04-23T01:00:10.733Z,10.10
2019-04-23T01:02:37.551Z,10.57
2019-04-23T01:05:11.376Z,10.93
2019-04-23T01:07:38.601Z,10.57
2019-04-23T01:10:15.137Z,10.80
2019-04-23T01:12:46.660Z,11.70
2019-04-23T01:15:24.258Z,11.43
2019-04-23T01:20:28.433Z,11.00
2019-04-23T01:22:38.054Z,11.63
2019-04-23T01:25:39.594Z,11.47
2019-04-23T01:28:28.249Z,12.10
2019-04-23T01:31:03.774Z,11.77
2019-04-23T01:33:35.544Z,12.20
2019-04-23T01:36:10.751Z,12.40
2019-04-23T01:38:35.562Z,12.27
2019-04-23T01:41:00.373Z,12.33
2019-04-23T01:43:36.775Z,11.87
2019-04-23T01:46:09.750Z,12.23
2019-04-23T01:48:42.414Z,12.33
2019-04-23T01:51:02.320Z,12.13
2019-04-23T01:53:43.883Z,12.53
2019-04-23T01:56:06.100Z,12.90
2019-04-23T02:01:12.876Z,13.40
2019-04-23T02:03:46.654Z,13.20
2019-04-23T02:06:13.614Z,12.47
2019-04-23T02:08:47.312Z,13.20
2019-04-23T02:11:11.460Z,13.10
2019-04-23T02:13:51.498Z,13.30
2019-04-23T02:16:21.453Z,13.70
2019-04-23T02:18:52.785Z,13.43
2019-04-23T02:21:23.939Z,13.87
2019-04-23T02:23:57.222Z,14.17
2019-04-23T02:26:34.424Z,13.77
2019-04-23T02:29:14.926Z,14.23
2019-04-23T02:31:52.793Z,14.43
2019-04-23T02:34:28.957Z,13.83
2019-04-23T02:39:12.573Z,14.57
2019-04-23T02:41:47.126Z,13.97
2019-04-23T02:51:59.431Z,15.03
2019-04-23T02:54:36.770Z,15.33
2019-04-23T02:56:51.083Z,14.37
2019-04-23T03:02:07.681Z,15.23
2019-04-23T03:04:33.811Z,15.80
2019-04-23T03:09:40.532Z,15.33
2019-04-23T03:12:08.242Z,15.37
2019-04-23T03:14:33.409Z,16.20
2019-04-23T03:17:27.286Z,15.67
2019-04-23T03:19:58.878Z,15.83
2019-04-23T03:22:44.487Z,16.10
2019-04-23T03:25:23.269Z,16.20
2019-04-23T03:27:44.052Z,16.03
2019-04-23T03:36:10.608Z,16.20
2019-04-23T03:37:55.844Z,15.63
2019-04-23T03:42:57.761Z,16.03
2019-04-23T03:48:00.797Z,16.03
2019-04-23T03:50:35.390Z,16.17
2019-04-23T03:52:57.254Z,16.10
2019-04-23T03:58:05.047Z,17.23
2019-04-23T04:00:37.091Z,16.90
2019-04-23T04:13:15.867Z,16.20
2019-04-23T04:15:55.512Z,15.97
2019-04-23T04:20:53.750Z,15.20
2019-04-23T04:23:22.776Z,15.37
2019-04-23T04:28:28.957Z,14.47
2019-04-23T04:30:48.059Z,14.10
2019-04-23T04:33:50.881Z,15.20
2019-04-23T04:35:58.998Z,13.23
2019-04-23T04:46:12.349Z,13.37
2019-04-23T04:48:35.107Z,12.00
2019-04-23T04:51:15.769Z,12.00
2019-04-23T04:58:43.154Z,12.33
2019-04-23T05:06:12.723Z,11.67
2019-04-23T05:11:17.383Z,11.93
2019-04-23T05:13:46.886Z,11.60
2019-04-23T05:16:17.386Z,12.03
2019-04-23T05:21:46.785Z,12.10
2019-04-23T05:24:16.651Z,11.63
2019-04-23T05:26:29.325Z,11.20
2019-04-23T05:31:32.574Z,10.97
2019-04-23T05:34:08.112Z,11.20
2019-04-23T05:36:52.139Z,10.97
2019-04-23T05:39:20.841Z,11.17
2019-04-23T05:41:46.965Z,11.40
2019-04-23T05:44:21.327Z,10.73
2019-04-23T05:46:44.966Z,10.50
2019-04-23T05:49:22.495Z,10.37
2019-04-23T05:54:29.979Z,10.40
2019-04-23T05:56:51.969Z,11.10
2019-04-23T05:59:23.114Z,10.50
2019-04-23T06:07:16.725Z,10.50
2019-04-23T06:14:35.682Z,10.13
2019-04-23T06:19:30.405Z,10.60
2019-04-23T06:24:53.517Z,10.70
2019-04-23T06:27:13.311Z,11.00
2019-04-23T06:29:43.305Z,10.43
2019-04-23T06:32:07.939Z,10.77
2019-04-23T06:34:41.619Z,11.43
2019-04-23T06:37:09.317Z,10.60
2019-04-23T06:39:48.046Z,10.87
2019-04-23T06:42:14.432Z,10.57
2019-04-23T06:47:21.551Z,10.40
2019-04-23T06:49:55.593Z,11.20
2019-04-23T06:52:21.299Z,10.20
2019-04-23T06:57:39.701Z,10.73
2019-04-23T07:00:02.434Z,9.93
2019-04-23T07:02:34.280Z,10.53
2019-04-23T07:10:07.497Z,10.50
2019-04-23T07:12:38.805Z,9.80
2019-04-23T07:15:29.074Z,9.93
2019-04-23T07:17:34.326Z,9.90
2019-04-23T07:20:15.169Z,10.17
2019-04-23T07:22:46.784Z,10.20
2019-04-23T07:25:14.220Z,9.90
2019-04-23T07:27:42.769Z,10.10
2019-04-23T07:32:49.801Z,9.90
2019-04-23T07:35:30.509Z,10.20
2019-04-23T07:37:57.209Z,10.00
2019-04-23T07:43:08.731Z,9.63
2019-04-23T07:46:01.683Z,10.50
2019-04-23T07:48:16.549Z,10.03
2019-04-23T07:51:16.252Z,9.43
2019-04-23T07:53:31.406Z,9.80
2019-04-23T07:58:33.213Z,9.17
2019-04-23T08:01:03.692Z,9.57
2019-04-23T08:03:39.839Z,9.43
2019-04-23T08:06:10.673Z,9.43
2019-04-23T08:08:37.783Z,9.60
2019-04-23T08:13:48.490Z,9.83
2019-04-23T08:16:26.073Z,9.63
2019-04-23T08:18:49.521Z,9.73
2019-04-23T08:21:16.300Z,9.43
2019-04-23T08:26:50.823Z,9.40
2019-04-23T08:32:02.224Z,9.90
2019-04-23T08:34:34.177Z,10.10
2019-04-23T08:37:03.191Z,9.73
2019-04-23T08:39:26.507Z,8.80
2019-04-23T08:42:21.633Z,9.43
2019-04-23T08:47:44.748Z,8.03
2019-04-23T08:50:18.855Z,6.80
2019-04-23T08:52:45.938Z,7.17
2019-04-23T08:55:16.906Z,7.00
2019-04-23T08:57:43.171Z,6.57
2019-04-23T09:00:17.790Z,6.60
2019-04-23T09:02:55.133Z,6.03
2019-04-23T09:05:28.663Z,5.47
2019-04-23T09:08:05.249Z,5.70
2019-04-23T09:10:26.473Z,5.67
2019-04-23T09:13:11.254Z,5.80
2019-04-23T09:15:33.312Z,5.80
2019-04-23T09:22:55.208Z,6.00
2019-04-23T09:25:36.694Z,5.90
2019-04-23T09:28:03.399Z,5.90
2019-04-23T09:30:35.128Z,6.40
2019-04-23T09:33:34.277Z,6.53
2019-04-23T09:36:25.664Z,6.03
2019-04-23T09:39:00.491Z,5.80
2019-04-23T09:41:31.397Z,6.00
2019-04-23T09:44:47.206Z,5.67
2019-04-23T09:47:13.991Z,6.17
2019-04-23T09:49:58.951Z,5.67
2019-04-23T09:52:13.384Z,5.87
2019-04-23T09:54:49.587Z,5.63
2019-04-23T09:57:12.478Z,5.33
2019-04-23T09:59:43.160Z,5.73
2019-04-23T10:02:08.712Z,5.80
2019-04-23T10:04:31.970Z,5.80
2019-04-23T10:07:02.840Z,5.83
2019-04-23T10:09:20.801Z,5.60
2019-04-23T10:11:51.220Z,5.57
2019-04-23T10:14:20.756Z,5.87
2019-04-23T10:16:52.998Z,5.23
2019-04-23T10:19:22.568Z,5.27
2019-04-23T10:21:53.349Z,5.50
2019-04-23T10:24:23.409Z,5.83
2019-04-23T10:26:52.694Z,5.53
2019-04-23T10:29:25.834Z,5.77
2019-04-23T10:31:55.618Z,5.30
2019-04-23T10:34:27.397Z,5.30
2019-04-23T10:36:57.593Z,5.27
2019-04-23T10:39:32.399Z,5.47
2019-04-23T10:42:01.200Z,5.50
2019-04-23T10:44:43.870Z,5.03
2019-04-23T10:51:01.786Z,5.27
2019-04-23T10:53:37.974Z,5.10
2019-04-23T10:58:35.403Z,4.77
2019-04-23T11:01:16.368Z,5.10
2019-04-23T11:03:49.200Z,4.70
2019-04-23T11:06:16.867Z,4.80
2019-04-23T11:08:50.442Z,4.90
2019-04-23T11:11:14.743Z,4.47
2019-04-23T11:13:44.935Z,4.43
2019-04-23T11:16:45.170Z,4.50
2019-04-23T11:23:51.992Z,4.40
2019-04-23T11:26:28.610Z,3.87
2019-04-23T11:28:55.442Z,3.80
2019-04-23T11:31:43.428Z,4.57
2019-04-23T11:34:00.410Z,4.23
2019-04-23T11:36:49.965Z,4.40
2019-04-23T11:39:00.696Z,3.73
2019-04-23T11:41:47.091Z,4.57
2019-04-23T11:44:04.027Z,4.33
2019-04-23T11:46:48.482Z,4.40
2019-04-23T11:50:25.894Z,4.67
2019-04-23T11:54:12.364Z,4.73
2019-04-23T11:59:17.505Z,4.73
2019-04-23T12:04:38.335Z,4.67
2019-04-23T12:07:21.401Z,4.70
2019-04-23T12:09:53.632Z,5.07
2019-04-23T12:22:33.210Z,4.63
2019-04-23T12:30:00.865Z,5.40
2019-04-23T12:35:19.456Z,4.80
2019-04-23T12:43:07.701Z,5.10
2019-04-23T12:48:16.202Z,5.60
2019-04-23T12:53:10.219Z,5.67
2019-04-23T12:55:42.214Z,5.80
2019-04-23T13:00:36.936Z,5.40
2019-04-23T13:03:16.534Z,5.10
2019-04-23T13:05:35.873Z,5.47
2019-04-23T13:08:31.976Z,5.13
2019-04-23T13:10:48.152Z,5.13
2019-04-23T13:15:47.966Z,5.43
2019-04-23T13:18:23.612Z,5.23
2019-04-23T13:20:42.209Z,6.40
2019-04-23T13:23:25.571Z,5.53
2019-04-23T13:28:35.485Z,5.43
2019-04-23T13:31:12.180Z,6.67
2019-04-23T13:43:47.823Z,6.43
2019-04-23T13:46:14.124Z,5.07
2019-04-23T13:48:41.918Z,6.20
2019-04-23T13:51:22.467Z,7.53
2019-04-23T13:58:54.908Z,7.73
2019-04-23T14:03:54.076Z,6.93
2019-04-23T14:08:59.578Z,7.40
2019-04-23T14:11:26.387Z,7.83
2019-04-23T14:14:29.450Z,8.47
2019-04-23T14:16:39.786Z,8.77
2019-04-23T14:21:51.687Z,7.90
2019-04-23T14:24:17.942Z,8.40
2019-04-23T14:26:38.421Z,7.60
2019-04-23T14:29:04.499Z,8.27
2019-04-23T14:31:44.873Z,8.33
2019-04-23T14:34:11.518Z,7.57
2019-04-23T14:36:55.634Z,7.83
2019-04-23T14:39:18.734Z,7.47
2019-04-23T14:41:54.228Z,7.77
2019-04-23T14:44:19.655Z,7.33
2019-04-23T14:47:00.629Z,8.03
2019-04-23T14:49:45.469Z,8.07
2019-04-23T14:52:09.092Z,7.60
2019-04-23T14:59:37.637Z,6.70
2019-04-23T15:02:13.893Z,7.00
2019-04-23T15:07:28.299Z,7.20
2019-04-23T15:09:57.527Z,7.20
2019-04-23T15:15:02.571Z,7.33
2019-04-23T15:17:20.596Z,7.20
2019-04-23T15:20:00.209Z,6.87
2019-04-23T15:22:57.335Z,7.10
2019-04-23T15:25:15.340Z,6.67
2019-04-23T15:28:03.684Z,6.77
2019-04-23T15:29:56.464Z,7.13
2019-04-23T15:32:53.567Z,7.13
2019-04-23T15:35:19.530Z,7.53
2019-04-23T15:37:58.460Z,7.00
2019-04-23T15:40:11.073Z,6.90
2019-04-23T15:42:40.352Z,6.93
2019-04-23T15:45:08.006Z,7.27
2019-04-23T15:47:48.111Z,7.17
2019-04-23T15:50:10.774Z,7.30
2019-04-23T15:52:56.609Z,6.70
2019-04-23T15:55:14.711Z,6.93
2019-04-23T15:58:03.223Z,6.93
2019-04-23T16:00:15.977Z,7.50
2019-04-23T16:02:21.656Z,6.70
2019-04-23T16:04:51.278Z,6.37
2019-04-23T16:07:39.363Z,6.93
2019-04-23T16:10:26.028Z,7.20
2019-04-23T16:12:59.799Z,7.70
2019-04-23T16:15:19.314Z,7.03
2019-04-23T16:18:04.215Z,6.93
2019-04-23T16:20:46.666Z,6.87
2019-04-23T16:23:03.999Z,6.33
2019-04-23T16:25:39.694Z,6.50
2019-04-23T16:28:28.957Z,6.10
2019-04-23T16:31:12.988Z,6.37
2019-04-23T16:34:04.736Z,5.83
2019-04-23T16:36:24.928Z,6.33
2019-04-23T16:39:04.244Z,6.40
2019-04-23T16:41:34.508Z,6.20
2019-04-23T16:44:06.811Z,6.53
2019-04-23T16:46:33.800Z,6.30
2019-04-23T16:49:15.379Z,6.63
2019-04-23T16:51:32.468Z,6.30
2019-04-23T16:54:10.317Z,6.53
2019-04-23T16:56:55.694Z,7.13
2019-04-23T16:59:15.357Z,7.33
2019-04-23T17:01:44.360Z,6.93
2019-04-23T17:06:53.499Z,6.90
2019-04-23T17:09:21.860Z,6.90
2019-04-23T17:11:55.631Z,7.03
2019-04-23T17:16:44.431Z,6.27
2019-04-23T17:19:29.408Z,7.23
2019-04-23T17:24:33.453Z,7.70
2019-04-23T17:27:16.528Z,7.00
2019-04-23T17:32:46.857Z,7.00
2019-04-23T17:35:24.686Z,7.27
2019-04-23T17:38:00.477Z,7.60
2019-04-23T17:43:01.609Z,7.37
2019-04-23T17:45:33.831Z,8.27
2019-04-23T17:53:25.387Z,8.10
2019-04-23T17:58:28.598Z,7.77
2019-04-23T18:01:10.990Z,7.80
2019-04-23T18:03:41.561Z,8.20
2019-04-23T18:06:30.075Z,7.90
2019-04-23T18:08:37.718Z,8.37
2019-04-23T18:13:43.817Z,8.37
2019-04-23T18:16:25.924Z,7.43
2019-04-23T18:18:52.496Z,8.10
2019-04-23T18:21:44.589Z,8.30
2019-04-23T18:29:59.620Z,8.63
2019-04-23T18:32:44.653Z,8.23
2019-04-23T18:35:20.261Z,8.30
2019-04-23T18:40:06.813Z,8.37
2019-04-23T18:42:43.683Z,8.53
2019-04-23T18:45:24.454Z,8.03
2019-04-23T18:50:32.724Z,10.30
2019-04-23T18:52:55.675Z,8.20
2019-04-23T18:55:37.130Z,8.97
2019-04-23T18:57:57.257Z,8.93
2019-04-23T19:00:40.683Z,9.00
2019-04-23T19:03:19.794Z,9.13
2019-04-23T19:05:58.557Z,9.10
2019-04-23T19:08:51.508Z,9.00
2019-04-23T19:11:49.165Z,9.10
2019-04-23T19:13:57.657Z,9.00
2019-04-23T19:16:50.813Z,8.67
2019-04-23T19:19:09.596Z,9.10
2019-04-23T19:21:59.401Z,9.00
2019-04-23T19:24:03.570Z,9.90
2019-04-23T19:29:13.078Z,9.80
2019-04-23T19:31:55.681Z,10.37
2019-04-23T19:49:38.549Z,11.00
2019-04-23T19:52:20.354Z,10.70
2019-04-23T19:54:42.684Z,10.43
2019-04-23T19:57:22.280Z,10.93
2019-04-23T20:02:21.861Z,10.50
2019-04-23T20:12:13.363Z,10.43
2019-04-23T20:19:48.197Z,10.63
2019-04-23T20:22:25.468Z,11.47
2019-04-23T20:30:23.050Z,12.23
2019-04-23T20:33:48.552Z,11.77
2019-04-23T20:35:24.180Z,12.53
2019-04-23T20:40:59.235Z,13.17
2019-04-23T20:43:14.989Z,11.90
2019-04-23T20:45:56.965Z,12.70
2019-04-23T20:48:25.905Z,12.90
2019-04-23T20:53:22.795Z,12.70
2019-04-23T20:58:39.470Z,12.23
2019-04-23T21:01:34.650Z,12.80
2019-04-23T21:03:50.164Z,12.67
2019-04-23T21:06:18.557Z,12.33
2019-04-23T21:09:14.904Z,12.03
2019-04-23T21:11:18.797Z,12.30
2019-04-23T21:16:26.103Z,12.13
2019-04-23T21:18:47.992Z,12.47
2019-04-23T21:21:25.231Z,12.23
2019-04-23T21:23:52.552Z,12.00
2019-04-23T21:26:25.118Z,11.90
2019-04-23T21:28:54.023Z,12.17
2019-04-23T21:31:45.521Z,12.30
2019-04-23T21:34:13.960Z,11.63
2019-04-23T21:36:46.349Z,11.67
2019-04-23T21:39:47.979Z,11.83
2019-04-23T21:44:18.132Z,11.87
2019-04-23T21:46:55.343Z,11.47
2019-04-23T21:49:41.260Z,11.37
2019-04-23T21:51:57.379Z,11.40
2019-04-23T21:54:30.718Z,11.43
2019-04-23T21:57:14.725Z,11.27
2019-04-23T21:59:34.532Z,11.60
2019-04-23T22:02:03.975Z,11.37
2019-04-23T22:07:07.117Z,11.33
2019-04-23T22:09:50.419Z,10.90
2019-04-23T22:12:14.895Z,11.43
2019-04-23T22:14:45.383Z,11.10
2019-04-23T22:17:16.850Z,12.20
2019-04-23T22:19:58.555Z,11.60
2019-04-23T22:22:20.414Z,11.87
2019-04-23T22:24:54.607Z,11.33
2019-04-23T22:27:19.648Z,11.37
2019-04-23T22:29:49.215Z,12.23
2019-04-23T22:32:30.490Z,11.50
2019-04-23T22:40:02.560Z,11.30
2019-04-23T22:42:56.879Z,11.70
2019-04-23T22:45:09.044Z,11.27
2019-04-23T22:47:34.573Z,11.53
2019-04-23T22:50:20.617Z,12.03
2019-04-23T22:52:41.249Z,12.07
2019-04-23T22:55:08.639Z,11.63
2019-04-23T22:57:56.623Z,11.97
2019-04-23T23:05:59.059Z,11.63
2019-04-23T23:08:13.157Z,11.87
2019-04-23T23:20:57.455Z,11.63
2019-04-23T23:25:55.422Z,11.57
2019-04-23T23:28:26.916Z,12.23
2019-04-23T23:31:05.283Z,12.03
2019-04-23T23:38:42.599Z,11.20
2019-04-23T23:41:12.349Z,11.87
2019-04-23T23:43:29.748Z,11.97
2019-04-23T23:46:18.061Z,11.67
2019-04-23T23:48:35.005Z,11.43
2019-04-23T23:53:53.312Z,11.53
2019-04-23T23:56:14.094Z,11.70
2019-04-23T23:58:52.627Z,11.80
